sensor_id;sensor_type;location;lat;lon;timestamp;pressure;altitude;pressure_sealevel;temperature;humidity
64158;BME280;50449;51.528;5.076;2022-09-09T00:04:32;100649.72;;;20.85;50.18
64158;BME280;50449;51.528;5.076;2022-09-09T00:09:24;100643.22;;;20.81;50.31
64158;BME280;50449;51.528;5.076;2022-09-09T00:12:02;100641.91;;;20.79;50.19
64158;BME280;50449;51.528;5.076;2022-09-09T00:17:04;100649.16;;;20.74;49.98
64158;BME280;50449;51.528;5.076;2022-09-09T00:22:21;100636.06;;;20.71;50.33
64158;BME280;50449;51.528;5.076;2022-09-09T00:24:55;100630.09;;;20.69;50.37
64158;BME280;50449;51.528;5.076;2022-09-09T00:30:23;100623.91;;;20.64;50.47
64158;BME280;50449;51.528;5.076;2022-09-09T00:32:53;100625.31;;;20.61;50.54
64158;BME280;50449;51.528;5.076;2022-09-09T00:35:25;100622.91;;;20.60;50.58
64158;BME280;50449;51.528;5.076;2022-09-09T00:37:55;100625.97;;;20.58;50.42
64158;BME280;50449;51.528;5.076;2022-09-09T00:48:22;100618.75;;;20.48;50.35
64158;BME280;50449;51.528;5.076;2022-09-09T00:50:57;100619.09;;;20.47;50.66
64158;BME280;50449;51.528;5.076;2022-09-09T00:56:19;100616.13;;;20.43;50.65
64158;BME280;50449;51.528;5.076;2022-09-09T00:59:02;100619.22;;;20.42;50.73
64158;BME280;50449;51.528;5.076;2022-09-09T01:01:33;100614.34;;;20.39;50.27
64158;BME280;50449;51.528;5.076;2022-09-09T01:04:00;100618.22;;;20.38;50.00
64158;BME280;50449;51.528;5.076;2022-09-09T01:06:33;100615.78;;;20.36;50.29
64158;BME280;50449;51.528;5.076;2022-09-09T01:09:10;100609.00;;;20.34;50.38
64158;BME280;50449;51.528;5.076;2022-09-09T01:17:15;100602.00;;;20.27;50.61
64158;BME280;50449;51.528;5.076;2022-09-09T01:22:34;100599.88;;;20.24;50.94
64158;BME280;50449;51.528;5.076;2022-09-09T01:27:46;100589.84;;;20.20;50.55
64158;BME280;50449;51.528;5.076;2022-09-09T01:30:16;100586.28;;;20.19;50.47
64158;BME280;50449;51.528;5.076;2022-09-09T01:32:48;100578.69;;;20.16;51.03
64158;BME280;50449;51.528;5.076;2022-09-09T01:35:48;100585.28;;;20.15;51.02
64158;BME280;50449;51.528;5.076;2022-09-09T01:38:26;100580.13;;;20.14;50.88
64158;BME280;50449;51.528;5.076;2022-09-09T01:40:53;100579.63;;;20.12;50.57
64158;BME280;50449;51.528;5.076;2022-09-09T01:43:22;100577.97;;;20.10;50.78
64158;BME280;50449;51.528;5.076;2022-09-09T01:45:52;100572.81;;;20.09;50.87
64158;BME280;50449;51.528;5.076;2022-09-09T01:48:20;100577.81;;;20.07;50.90
64158;BME280;50449;51.528;5.076;2022-09-09T01:50:46;100575.38;;;20.05;50.99
64158;BME280;50449;51.528;5.076;2022-09-09T01:53:12;100570.22;;;20.04;50.90
64158;BME280;50449;51.528;5.076;2022-09-09T01:55:40;100565.81;;;20.03;51.16
64158;BME280;50449;51.528;5.076;2022-09-09T02:00:53;100563.72;;;20.00;50.79
64158;BME280;50449;51.528;5.076;2022-09-09T02:03:25;100564.84;;;19.99;50.63
64158;BME280;50449;51.528;5.076;2022-09-09T02:08:45;100566.56;;;19.95;50.97
64158;BME280;50449;51.528;5.076;2022-09-09T02:11:17;100571.56;;;19.93;50.77
64158;BME280;50449;51.528;5.076;2022-09-09T02:13:45;100567.19;;;19.92;50.72
64158;BME280;50449;51.528;5.076;2022-09-09T02:16:16;100570.25;;;19.90;50.80
64158;BME280;50449;51.528;5.076;2022-09-09T02:19:01;100567.81;;;19.88;50.81
64158;BME280;50449;51.528;5.076;2022-09-09T02:21:29;100564.59;;;19.86;51.16
64158;BME280;50449;51.528;5.076;2022-09-09T02:23:58;100555.03;;;19.84;50.99
64158;BME280;50449;51.528;5.076;2022-09-09T02:26:25;100558.09;;;19.82;50.80
64158;BME280;50449;51.528;5.076;2022-09-09T02:28:54;100561.16;;;19.81;50.79
64158;BME280;50449;51.528;5.076;2022-09-09T02:31:22;100554.03;;;19.80;51.33
64158;BME280;50449;51.528;5.076;2022-09-09T02:33:53;100557.91;;;19.79;50.72
64158;BME280;50449;51.528;5.076;2022-09-09T02:36:23;100551.13;;;19.76;50.81
64158;BME280;50449;51.528;5.076;2022-09-09T02:38:49;100557.69;;;19.75;51.08
64158;BME280;50449;51.528;5.076;2022-09-09T02:41:24;100550.59;;;19.74;50.88
64158;BME280;50449;51.528;5.076;2022-09-09T02:43:51;100549.00;;;19.73;51.06
64158;BME280;50449;51.528;5.076;2022-09-09T02:48:58;100544.09;;;19.70;50.93
64158;BME280;50449;51.528;5.076;2022-09-09T02:51:54;100547.19;;;19.69;51.35
64158;BME280;50449;51.528;5.076;2022-09-09T02:54:27;100554.06;;;19.66;50.97
64158;BME280;50449;51.528;5.076;2022-09-09T02:57:01;100551.59;;;19.64;51.19
64158;BME280;50449;51.528;5.076;2022-09-09T02:59:30;100547.25;;;19.63;51.40
64158;BME280;50449;51.528;5.076;2022-09-09T03:01:56;100548.06;;;19.64;51.29
64158;BME280;50449;51.528;5.076;2022-09-09T03:04:21;100553.84;;;19.62;51.47
64158;BME280;50449;51.528;5.076;2022-09-09T03:06:47;100559.66;;;19.61;51.38
64158;BME280;50449;51.528;5.076;2022-09-09T03:09:12;100561.88;;;19.59;51.01
64158;BME280;50449;51.528;5.076;2022-09-09T03:11:38;100565.72;;;19.58;51.43
64158;BME280;50449;51.528;5.076;2022-09-09T03:14:03;100559.75;;;19.56;51.34
64158;BME280;50449;51.528;5.076;2022-09-09T03:16:29;100561.66;;;19.55;51.55
64158;BME280;50449;51.528;5.076;2022-09-09T03:18:55;100557.31;;;19.54;51.26
64158;BME280;50449;51.528;5.076;2022-09-09T03:21:20;100563.94;;;19.53;51.36
64158;BME280;50449;51.528;5.076;2022-09-09T03:23:46;100563.41;;;19.51;51.48
64158;BME280;50449;51.528;5.076;2022-09-09T03:26:11;100569.19;;;19.50;51.40
64158;BME280;50449;51.528;5.076;2022-09-09T03:28:36;100564.03;;;19.48;51.12
64158;BME280;50449;51.528;5.076;2022-09-09T03:31:04;100566.25;;;19.46;51.09
64158;BME280;50449;51.528;5.076;2022-09-09T03:33:31;100558.03;;;19.46;51.47
64158;BME280;50449;51.528;5.076;2022-09-09T03:35:57;100556.41;;;19.45;51.16
64158;BME280;50449;51.528;5.076;2022-09-09T03:38:25;100553.19;;;19.43;51.50
64158;BME280;50449;51.528;5.076;2022-09-09T03:40:53;100552.34;;;19.42;51.30
64158;BME280;50449;51.528;5.076;2022-09-09T03:43:24;100546.06;;;19.42;51.45
64158;BME280;50449;51.528;5.076;2022-09-09T03:45:50;100546.41;;;19.40;51.05
64158;BME280;50449;51.528;5.076;2022-09-09T03:48:17;100545.88;;;19.38;51.39
64158;BME280;50449;51.528;5.076;2022-09-09T03:50:51;100550.84;;;19.36;51.47
64158;BME280;50449;51.528;5.076;2022-09-09T03:53:18;100549.25;;;19.35;51.01
64158;BME280;50449;51.528;5.076;2022-09-09T03:55:49;100542.13;;;19.34;51.29
64158;BME280;50449;51.528;5.076;2022-09-09T03:58:18;100546.00;;;19.33;51.37
64158;BME280;50449;51.528;5.076;2022-09-09T04:00:59;100547.09;;;19.32;51.50
64158;BME280;50449;51.528;5.076;2022-09-09T04:03:25;100543.56;;;19.32;51.00
64158;BME280;50449;51.528;5.076;2022-09-09T04:05:52;100541.44;;;19.29;51.45
64158;BME280;50449;51.528;5.076;2022-09-09T04:08:18;100542.22;;;19.29;51.28
64158;BME280;50449;51.528;5.076;2022-09-09T04:10:47;100544.47;;;19.27;51.49
64158;BME280;50449;51.528;5.076;2022-09-09T04:13:14;100542.84;;;19.26;51.44
64158;BME280;50449;51.528;5.076;2022-09-09T04:15:41;100544.78;;;19.26;51.05
64158;BME280;50449;51.528;5.076;2022-09-09T04:18:07;100534.94;;;19.24;51.39
64158;BME280;50449;51.528;5.076;2022-09-09T04:20:33;100539.09;;;19.22;51.24
64158;BME280;50449;51.528;5.076;2022-09-09T04:22:58;100536.34;;;19.22;51.46
64158;BME280;50449;51.528;5.076;2022-09-09T04:25:24;100533.09;;;19.20;51.58
64158;BME280;50449;51.528;5.076;2022-09-09T04:27:54;100535.03;;;19.19;51.68
64158;BME280;50449;51.528;5.076;2022-09-09T04:30:20;100536.47;;;19.17;51.35
64158;BME280;50449;51.528;5.076;2022-09-09T04:32:46;100532.91;;;19.16;51.75
64158;BME280;50449;51.528;5.076;2022-09-09T04:35:11;100534.06;;;19.15;51.70
64158;BME280;50449;51.528;5.076;2022-09-09T04:37:36;100533.22;;;19.15;51.50
64158;BME280;50449;51.528;5.076;2022-09-09T04:40:02;100523.38;;;19.14;51.59
64158;BME280;50449;51.528;5.076;2022-09-09T04:42:28;100525.63;;;19.12;51.66
64158;BME280;50449;51.528;5.076;2022-09-09T04:44:53;100524.00;;;19.11;51.44
64158;BME280;50449;51.528;5.076;2022-09-09T04:47:19;100521.28;;;19.11;51.32
64158;BME280;50449;51.528;5.076;2022-09-09T04:49:44;100515.28;;;19.09;51.38
64158;BME280;50449;51.528;5.076;2022-09-09T04:52:10;100519.94;;;19.08;51.75
64158;BME280;50449;51.528;5.076;2022-09-09T04:54:35;100516.41;;;19.08;51.27
64158;BME280;50449;51.528;5.076;2022-09-09T04:57:00;100516.69;;;19.06;51.38
64158;BME280;50449;51.528;5.076;2022-09-09T04:59:26;100514.25;;;19.05;51.65
64158;BME280;50449;51.528;5.076;2022-09-09T05:01:51;100512.66;;;19.03;51.78
64158;BME280;50449;51.528;5.076;2022-09-09T05:04:16;100506.38;;;19.03;51.70
64158;BME280;50449;51.528;5.076;2022-09-09T05:06:42;100506.66;;;19.01;51.71
64158;BME280;50449;51.528;5.076;2022-09-09T05:09:08;100505.84;;;19.01;51.47
64158;BME280;50449;51.528;5.076;2022-09-09T05:11:34;100507.00;;;19.00;51.44
64158;BME280;50449;51.528;5.076;2022-09-09T05:14:03;100502.63;;;18.99;51.83
64158;BME280;50449;51.528;5.076;2022-09-09T05:16:29;100505.63;;;18.97;51.83
64158;BME280;50449;51.528;5.076;2022-09-09T05:18:55;100515.78;;;18.97;51.77
64158;BME280;50449;51.528;5.076;2022-09-09T05:21:22;100512.25;;;18.96;51.48
64158;BME280;50449;51.528;5.076;2022-09-09T05:23:48;100510.63;;;18.95;51.65
64158;BME280;50449;51.528;5.076;2022-09-09T05:26:16;100514.47;;;18.94;51.85
64158;BME280;50449;51.528;5.076;2022-09-09T05:28:42;100509.78;;;18.95;52.12
64158;BME280;50449;51.528;5.076;2022-09-09T05:31:09;100509.31;;;18.93;51.76
64158;BME280;50449;51.528;5.076;2022-09-09T05:33:36;100512.34;;;18.91;52.02
64158;BME280;50449;51.528;5.076;2022-09-09T05:36:04;100511.53;;;18.91;52.19
64158;BME280;50449;51.528;5.076;2022-09-09T05:38:31;100519.75;;;18.91;52.17
64158;BME280;50449;51.528;5.076;2022-09-09T05:40:57;100514.56;;;18.89;51.98
64158;BME280;50449;51.528;5.076;2022-09-09T05:43:23;100520.03;;;18.89;52.01
64158;BME280;50449;51.528;5.076;2022-09-09T05:46:05;100516.78;;;18.87;51.94
64158;BME280;50449;51.528;5.076;2022-09-09T05:48:32;100514.88;;;18.88;51.83
64158;BME280;50449;51.528;5.076;2022-09-09T05:50:59;100517.13;;;18.86;51.83
64158;BME280;50449;51.528;5.076;2022-09-09T05:53:29;100515.19;;;18.86;51.91
64158;BME280;50449;51.528;5.076;2022-09-09T05:55:59;100508.09;;;18.85;52.24
64158;BME280;50449;51.528;5.076;2022-09-09T05:58:24;100520.16;;;18.84;52.27
64158;BME280;50449;51.528;5.076;2022-09-09T06:00:50;100515.47;;;18.85;52.15
64158;BME280;50449;51.528;5.076;2022-09-09T06:03:15;100519.34;;;18.84;51.98
64158;BME280;50449;51.528;5.076;2022-09-09T06:05:42;100520.47;;;18.83;52.20
64158;BME280;50449;51.528;5.076;2022-09-09T06:08:07;100516.91;;;18.82;52.01
64158;BME280;50449;51.528;5.076;2022-09-09T06:10:33;100521.28;;;18.83;52.04
64158;BME280;50449;51.528;5.076;2022-09-09T06:12:59;100525.09;;;18.82;52.25
64158;BME280;50449;51.528;5.076;2022-09-09T06:15:25;100522.38;;;18.82;52.42
64158;BME280;50449;51.528;5.076;2022-09-09T06:17:56;100521.56;;;18.81;52.55
64158;BME280;50449;51.528;5.076;2022-09-09T06:20:21;100520.75;;;18.81;52.08
64158;BME280;50449;51.528;5.076;2022-09-09T06:22:47;100519.94;;;18.80;52.29
64158;BME280;50449;51.528;5.076;2022-09-09T06:25:13;100513.69;;;18.80;52.22
64158;BME280;50449;51.528;5.076;2022-09-09T06:27:39;100517.50;;;18.79;52.36
64158;BME280;50449;51.528;5.076;2022-09-09T06:30:05;100516.69;;;18.78;52.44
64158;BME280;50449;51.528;5.076;2022-09-09T06:32:30;100518.31;;;18.79;52.18
64158;BME280;50449;51.528;5.076;2022-09-09T06:34:56;100516.69;;;18.78;52.53
64158;BME280;50449;51.528;5.076;2022-09-09T06:37:21;100513.97;;;18.78;52.75
64158;BME280;50449;51.528;5.076;2022-09-09T06:39:49;100513.16;;;18.78;52.53
64158;BME280;50449;51.528;5.076;2022-09-09T06:42:14;100517.84;;;18.77;52.38
64158;BME280;50449;51.528;5.076;2022-09-09T06:44:40;100509.63;;;18.77;52.72
64158;BME280;50449;51.528;5.076;2022-09-09T06:47:06;100508.78;;;18.77;53.02
64158;BME280;50449;51.528;5.076;2022-09-09T06:49:31;100506.06;;;18.77;52.70
64158;BME280;50449;51.528;5.076;2022-09-09T06:51:57;100510.72;;;18.76;52.46
64158;BME280;50449;51.528;5.076;2022-09-09T06:54:22;100506.38;;;18.75;52.76
64158;BME280;50449;51.528;5.076;2022-09-09T06:56:48;100512.34;;;18.77;53.11
64158;BME280;50449;51.528;5.076;2022-09-09T06:59:15;100506.06;;;18.77;53.16
64158;BME280;50449;51.528;5.076;2022-09-09T07:01:42;100508.78;;;18.77;52.92
64158;BME280;50449;51.528;5.076;2022-09-09T07:04:09;100508.78;;;18.77;52.88
64158;BME280;50449;51.528;5.076;2022-09-09T07:06:38;100509.63;;;18.77;53.03
64158;BME280;50449;51.528;5.076;2022-09-09T07:09:07;100513.16;;;18.78;52.77
64158;BME280;50449;51.528;5.076;2022-09-09T07:11:37;100504.94;;;18.78;52.97
64158;BME280;50449;51.528;5.076;2022-09-09T07:14:03;100515.09;;;18.77;53.22
64158;BME280;50449;51.528;5.076;2022-09-09T07:16:28;100506.88;;;18.77;53.28
64158;BME280;50449;51.528;5.076;2022-09-09T07:18:54;100508.50;;;18.78;53.39
64158;BME280;50449;51.528;5.076;2022-09-09T07:21:23;100513.16;;;18.78;53.16
64158;BME280;50449;51.528;5.076;2022-09-09T07:23:49;100515.91;;;18.78;52.98
64158;BME280;50449;51.528;5.076;2022-09-09T07:26:17;100507.69;;;18.78;53.42
64158;BME280;50449;51.528;5.076;2022-09-09T07:28:44;100512.03;;;18.79;53.39
64158;BME280;50449;51.528;5.076;2022-09-09T07:31:18;100495.63;;;18.79;53.69
64158;BME280;50449;51.528;5.076;2022-09-09T07:33:45;100514.47;;;18.80;53.33
64158;BME280;50449;51.528;5.076;2022-09-09T07:36:19;100515.28;;;18.81;54.02
64158;BME280;50449;51.528;5.076;2022-09-09T07:38:53;100501.59;;;18.81;53.48
64158;BME280;50449;51.528;5.076;2022-09-09T07:41:24;100505.94;;;18.82;53.95
64158;BME280;50449;51.528;5.076;2022-09-09T07:43:50;100513.06;;;18.83;53.89
64158;BME280;50449;51.528;5.076;2022-09-09T07:46:18;100504.84;;;18.83;53.45
64158;BME280;50449;51.528;5.076;2022-09-09T07:48:52;100503.72;;;18.84;53.83
64158;BME280;50449;51.528;5.076;2022-09-09T07:51:33;100503.72;;;18.84;53.99
64158;BME280;50449;51.528;5.076;2022-09-09T07:54:05;100499.88;;;18.85;53.43
64158;BME280;50449;51.528;5.076;2022-09-09T07:56:32;100497.97;;;18.86;53.88
64158;BME280;50449;51.528;5.076;2022-09-09T07:58:58;100501.50;;;18.86;54.14
64158;BME280;50449;51.528;5.076;2022-09-09T08:01:28;100496.53;;;18.88;53.72
64158;BME280;50449;51.528;5.076;2022-09-09T08:04:00;100500.09;;;18.89;53.98
64158;BME280;50449;51.528;5.076;2022-09-09T08:06:27;100503.31;;;18.91;54.17
64158;BME280;50449;51.528;5.076;2022-09-09T08:08:53;100513.97;;;18.92;53.99
64158;BME280;50449;51.528;5.076;2022-09-09T08:11:21;100510.13;;;18.93;53.79
64158;BME280;50449;51.528;5.076;2022-09-09T08:13:49;100512.53;;;18.95;53.85
64158;BME280;50449;51.528;5.076;2022-09-09T08:16:17;100510.63;;;18.95;54.19
64158;BME280;50449;51.528;5.076;2022-09-09T08:18:43;100515.78;;;18.97;54.18
64158;BME280;50449;51.528;5.076;2022-09-09T08:23:37;100520.47;;;18.96;54.03
64158;BME280;50449;51.528;5.076;2022-09-09T08:26:10;100523.72;;;18.98;54.02
64158;BME280;50449;51.528;5.076;2022-09-09T08:28:36;100516.28;;;18.99;54.22
64158;BME280;50449;51.528;5.076;2022-09-09T08:31:13;100516.81;;;19.01;54.29
64158;BME280;50449;51.528;5.076;2022-09-09T08:33:40;100516.50;;;19.02;54.21
64158;BME280;50449;51.528;5.076;2022-09-09T08:36:08;100521.66;;;19.04;54.14
64158;BME280;50449;51.528;5.076;2022-09-09T08:38:35;100519.44;;;19.06;53.99
64158;BME280;50449;51.528;5.076;2022-09-09T08:41:12;100526.53;;;19.07;54.50
64158;BME280;50449;51.528;5.076;2022-09-09T08:43:46;100525.44;;;19.08;54.44
64158;BME280;50449;51.528;5.076;2022-09-09T08:46:26;100524.31;;;19.09;54.32
64158;BME280;50449;51.528;5.076;2022-09-09T08:49:14;100532.22;;;19.11;54.62
64158;BME280;50449;51.528;5.076;2022-09-09T08:51:41;100532.22;;;19.11;54.47
64158;BME280;50449;51.528;5.076;2022-09-09T08:54:08;100527.56;;;19.11;54.40
64158;BME280;50449;51.528;5.076;2022-09-09T08:56:35;100532.72;;;19.13;54.19
64158;BME280;50449;51.528;5.076;2022-09-09T08:59:02;100531.59;;;19.14;54.25
64158;BME280;50449;51.528;5.076;2022-09-09T09:01:51;100528.88;;;19.14;54.47
64158;BME280;50449;51.528;5.076;2022-09-09T09:04:41;100540.31;;;19.16;54.60
64158;BME280;50449;51.528;5.076;2022-09-09T09:07:14;100545.81;;;19.16;54.21
64158;BME280;50449;51.528;5.076;2022-09-09T09:12:31;100553.41;;;19.19;54.58
64158;BME280;50449;51.528;5.076;2022-09-09T09:14:59;100555.34;;;19.18;54.38
64158;BME280;50449;51.528;5.076;2022-09-09T09:17:26;100564.06;;;19.20;54.56
64158;BME280;50449;51.528;5.076;2022-09-09T09:19:53;100561.00;;;19.22;54.39
64158;BME280;50449;51.528;5.076;2022-09-09T09:22:26;100556.31;;;19.22;54.41
64158;BME280;50449;51.528;5.076;2022-09-09T09:30:40;100558.16;;;19.27;54.79
64158;BME280;50449;51.528;5.076;2022-09-09T09:35:57;100559.78;;;19.28;54.51
64158;BME280;50449;51.528;5.076;2022-09-09T09:38:26;100557.06;;;19.28;54.79
64158;BME280;50449;51.528;5.076;2022-09-09T09:40:56;100558.66;;;19.29;54.45
64158;BME280;50449;51.528;5.076;2022-09-09T09:43:30;100560.28;;;19.30;54.65
64158;BME280;50449;51.528;5.076;2022-09-09T09:45:56;100559.19;;;19.31;54.63
64158;BME280;50449;51.528;5.076;2022-09-09T09:48:23;100558.06;;;19.32;54.77
64158;BME280;50449;51.528;5.076;2022-09-09T09:56:13;100561.81;;;19.36;54.83
64158;BME280;50449;51.528;5.076;2022-09-09T10:01:30;100556.84;;;19.38;55.11
64158;BME280;50449;51.528;5.076;2022-09-09T10:04:17;100560.38;;;19.39;55.23
64158;BME280;50449;51.528;5.076;2022-09-09T10:06:44;100555.72;;;19.39;54.92
64158;BME280;50449;51.528;5.076;2022-09-09T10:12:11;100558.97;;;19.41;54.77
64158;BME280;50449;51.528;5.076;2022-09-09T10:14:41;100563.63;;;19.41;54.79
64158;BME280;50449;51.528;5.076;2022-09-09T10:20:15;100565.25;;;19.42;55.38
64158;BME280;50449;51.528;5.076;2022-09-09T10:22:47;100563.81;;;19.44;55.29
64158;BME280;50449;51.528;5.076;2022-09-09T10:33:33;100566.78;;;19.48;56.27
64158;BME280;50449;51.528;5.076;2022-09-09T10:36:21;100561.28;;;19.48;55.93
64158;BME280;50449;51.528;5.076;2022-09-09T10:39:35;100558.22;;;19.50;56.02
64158;BME280;50449;51.528;5.076;2022-09-09T10:42:12;100562.63;;;19.51;56.31
64158;BME280;50449;51.528;5.076;2022-09-09T10:49:56;100555.72;;;19.53;56.23
64158;BME280;50449;51.528;5.076;2022-09-09T10:52:32;100556.50;;;19.54;56.57
64158;BME280;50449;51.528;5.076;2022-09-09T10:55:16;100567.97;;;19.56;55.92
64158;BME280;50449;51.528;5.076;2022-09-09T10:57:45;100563.31;;;19.56;56.47
64158;BME280;50449;51.528;5.076;2022-09-09T11:00:19;100555.59;;;19.58;56.49
64158;BME280;50449;51.528;5.076;2022-09-09T11:02:49;100549.78;;;19.60;56.28
64158;BME280;50449;51.528;5.076;2022-09-09T11:05:20;100554.66;;;19.63;56.00
64158;BME280;50449;51.528;5.076;2022-09-09T11:07:51;100550.81;;;19.64;56.00
64158;BME280;50449;51.528;5.076;2022-09-09T11:16:16;100558.94;;;19.69;56.59
64158;BME280;50449;51.528;5.076;2022-09-09T11:18:46;100557.00;;;19.70;56.16
64158;BME280;50449;51.528;5.076;2022-09-09T11:21:26;100564.13;;;19.71;56.74
64158;BME280;50449;51.528;5.076;2022-09-09T11:24:02;100556.38;;;19.73;56.54
64158;BME280;50449;51.528;5.076;2022-09-09T11:26:38;100556.88;;;19.75;56.90
64158;BME280;50449;51.528;5.076;2022-09-09T11:34:51;100554.34;;;19.78;56.71
64158;BME280;50449;51.528;5.076;2022-09-09T11:40:20;100554.84;;;19.80;56.92
64158;BME280;50449;51.528;5.076;2022-09-09T11:42:48;100553.72;;;19.81;56.38
64158;BME280;50449;51.528;5.076;2022-09-09T11:47:58;100552.59;;;19.82;56.39
64158;BME280;50449;51.528;5.076;2022-09-09T11:52:50;100558.59;;;19.84;56.75
64158;BME280;50449;51.528;5.076;2022-09-09T11:55:27;100568.41;;;19.85;56.90
64158;BME280;50449;51.528;5.076;2022-09-09T11:58:00;100571.66;;;19.87;56.84
64158;BME280;50449;51.528;5.076;2022-09-09T12:00:35;100563.16;;;19.89;57.12
64158;BME280;50449;51.528;5.076;2022-09-09T12:03:02;100560.91;;;19.91;56.43
64158;BME280;50449;51.528;5.076;2022-09-09T12:05:45;100561.72;;;19.92;57.03
64158;BME280;50449;51.528;5.076;2022-09-09T12:08:16;100556.22;;;19.92;57.02
64158;BME280;50449;51.528;5.076;2022-09-09T12:10:53;100554.00;;;19.94;56.82
64158;BME280;50449;51.528;5.076;2022-09-09T12:13:22;100545.78;;;19.94;56.74
64158;BME280;50449;51.528;5.076;2022-09-09T12:15:55;100556.41;;;19.95;56.49
64158;BME280;50449;51.528;5.076;2022-09-09T12:18:38;100553.38;;;19.97;56.30
64158;BME280;50449;51.528;5.076;2022-09-09T12:21:44;100546.75;;;19.98;56.79
64158;BME280;50449;51.528;5.076;2022-09-09T12:24:33;100556.63;;;19.99;57.19
64158;BME280;50449;51.528;5.076;2022-09-09T12:27:17;100559.03;;;20.00;56.71
64158;BME280;50449;51.528;5.076;2022-09-09T12:32:26;100550.81;;;20.00;56.77
64158;BME280;50449;51.528;5.076;2022-09-09T12:35:00;100552.94;;;20.03;56.53
64158;BME280;50449;51.528;5.076;2022-09-09T12:37:48;100544.41;;;20.05;57.14
64158;BME280;50449;51.528;5.076;2022-09-09T12:42:43;100538.63;;;20.06;56.62
64158;BME280;50449;51.528;5.076;2022-09-09T12:45:35;100547.00;;;20.10;56.33
64158;BME280;50449;51.528;5.076;2022-09-09T12:48:08;100547.53;;;20.12;56.64
64158;BME280;50449;51.528;5.076;2022-09-09T12:50:38;100541.41;;;20.15;56.79
64158;BME280;50449;51.528;5.076;2022-09-09T12:53:30;100550.66;;;20.19;56.37
64158;BME280;50449;51.528;5.076;2022-09-09T12:56:03;100546.47;;;20.22;56.18
64158;BME280;50449;51.528;5.076;2022-09-09T12:58:30;100541.47;;;20.24;56.31
64158;BME280;50449;51.528;5.076;2022-09-09T13:01:00;100542.78;;;20.26;56.10
64158;BME280;50449;51.528;5.076;2022-09-09T13:03:28;100542.16;;;20.29;56.18
64158;BME280;50449;51.528;5.076;2022-09-09T13:05:58;100544.28;;;20.32;56.18
64158;BME280;50449;51.528;5.076;2022-09-09T13:08:25;100541.22;;;20.34;56.13
64158;BME280;50449;51.528;5.076;2022-09-09T13:11:04;100529.63;;;20.37;56.34
64158;BME280;50449;51.528;5.076;2022-09-09T13:13:37;100535.28;;;20.41;56.20
64158;BME280;50449;51.528;5.076;2022-09-09T13:16:05;100528.69;;;20.42;55.83
64158;BME280;50449;51.528;5.076;2022-09-09T13:18:35;100529.19;;;20.44;56.06
64158;BME280;50449;51.528;5.076;2022-09-09T13:21:03;100534.03;;;20.47;56.22
64158;BME280;50449;51.528;5.076;2022-09-09T13:23:34;100538.88;;;20.50;55.81
64158;BME280;50449;51.528;5.076;2022-09-09T13:26:05;100533.41;;;20.50;55.54
64158;BME280;50449;51.528;5.076;2022-09-09T13:28:33;100534.41;;;20.54;55.95
64158;BME280;50449;51.528;5.076;2022-09-09T13:31:01;100536.53;;;20.57;55.97
64158;BME280;50449;51.528;5.076;2022-09-09T13:33:35;100531.06;;;20.57;55.34
64158;BME280;50449;51.528;5.076;2022-09-09T13:36:09;100537.50;;;20.61;55.93
64158;BME280;50449;51.528;5.076;2022-09-09T13:38:54;100538.00;;;20.63;55.72
64158;BME280;50449;51.528;5.076;2022-09-09T13:41:25;100536.56;;;20.66;55.44
64158;BME280;50449;51.528;5.076;2022-09-09T13:43:54;100538.22;;;20.67;55.16
64158;BME280;50449;51.528;5.076;2022-09-09T13:46:40;100533.69;;;20.71;55.46
64158;BME280;50449;51.528;5.076;2022-09-09T13:51:37;100524.84;;;20.74;55.15
64158;BME280;50449;51.528;5.076;2022-09-09T13:54:09;100525.31;;;20.76;55.02
64158;BME280;50449;51.528;5.076;2022-09-09T13:56:36;100534.84;;;20.79;55.47
64158;BME280;50449;51.528;5.076;2022-09-09T13:59:03;100529.84;;;20.81;55.22
64158;BME280;50449;51.528;5.076;2022-09-09T14:01:29;100535.03;;;20.82;55.22
64158;BME280;50449;51.528;5.076;2022-09-09T14:03:55;100530.34;;;20.83;54.75
64158;BME280;50449;51.528;5.076;2022-09-09T14:06:21;100528.41;;;20.83;54.38
64158;BME280;50449;51.528;5.076;2022-09-09T14:08:50;100526.97;;;20.86;54.69
64158;BME280;50449;51.528;5.076;2022-09-09T14:11:16;100523.91;;;20.87;54.79
64158;BME280;50449;51.528;5.076;2022-09-09T14:13:42;100522.47;;;20.90;54.53
64158;BME280;50449;51.528;5.076;2022-09-09T14:16:08;100524.59;;;20.93;54.96
64158;BME280;50449;51.528;5.076;2022-09-09T14:18:33;100523.44;;;20.94;54.80
64158;BME280;50449;51.528;5.076;2022-09-09T14:20:59;100528.63;;;20.95;54.70
64158;BME280;50449;51.528;5.076;2022-09-09T14:23:24;100532.19;;;20.96;54.28
64158;BME280;50449;51.528;5.076;2022-09-09T14:25:50;100525.56;;;20.97;54.26
64158;BME280;50449;51.528;5.076;2022-09-09T14:28:17;100530.44;;;21.00;54.43
64158;BME280;50449;51.528;5.076;2022-09-09T14:30:43;100528.47;;;21.01;54.53
64158;BME280;50449;51.528;5.076;2022-09-09T14:33:11;100548.19;;;21.03;54.55
64158;BME280;50449;51.528;5.076;2022-09-09T14:35:37;100550.94;;;21.03;54.42
64158;BME280;50449;51.528;5.076;2022-09-09T14:38:04;100562.44;;;21.05;54.93
64158;BME280;50449;51.528;5.076;2022-09-09T14:40:30;100571.47;;;21.05;54.93
64158;BME280;50449;51.528;5.076;2022-09-09T14:42:56;100559.34;;;21.06;55.15
64158;BME280;50449;51.528;5.076;2022-09-09T14:45:24;100572.28;;;21.06;55.18
64158;BME280;50449;51.528;5.076;2022-09-09T14:47:50;100590.38;;;21.07;54.77
64158;BME280;50449;51.528;5.076;2022-09-09T14:50:16;100560.19;;;21.07;54.48
64158;BME280;50449;51.528;5.076;2022-09-09T14:52:41;100560.97;;;21.07;54.66
64158;BME280;50449;51.528;5.076;2022-09-09T14:55:07;100567.28;;;21.08;54.93
64158;BME280;50449;51.528;5.076;2022-09-09T14:57:32;100569.22;;;21.07;55.17